sensor_id;sensor_type;location;lat;lon;timestamp;temperature;humidity
50067;DHT22;35952;52.524;13.340;2023-01-13T00:01:15;9.60;99.90
50067;DHT22;35952;52.524;13.340;2023-01-13T00:03:42;9.60;99.90
50067;DHT22;35952;52.524;13.340;2023-01-13T00:06:10;9.60;99.90
50067;DHT22;35952;52.524;13.340;2023-01-13T00:08:36;9.70;99.90
50067;DHT22;35952;52.524;13.340;2023-01-13T00:11:02;9.60;99.90
50067;DHT22;35952;52.524;13.340;2023-01-13T00:13:27;9.50;99.90
50067;DHT22;35952;52.524;13.340;2023-01-13T00:16:02;9.60;99.90
50067;DHT22;35952;52.524;13.340;2023-01-13T00:18:28;9.60;99.90
50067;DHT22;35952;52.524;13.340;2023-01-13T00:21:14;9.60;99.90
50067;DHT22;35952;52.524;13.340;2023-01-13T00:23:41;9.60;99.90
50067;DHT22;35952;52.524;13.340;2023-01-13T00:26:12;9.70;99.90
50067;DHT22;35952;52.524;13.340;2023-01-13T00:28:38;9.70;99.90
50067;DHT22;35952;52.524;13.340;2023-01-13T00:31:10;9.70;99.90
50067;DHT22;35952;52.524;13.340;2023-01-13T00:33:36;9.80;99.90
50067;DHT22;35952;52.524;13.340;2023-01-13T00:36:03;9.70;99.90
50067;DHT22;35952;52.524;13.340;2023-01-13T00:38:31;9.70;99.90
50067;DHT22;35952;52.524;13.340;2023-01-13T00:40:58;9.70;99.90
50067;DHT22;35952;52.524;13.340;2023-01-13T00:43:24;9.60;99.90
50067;DHT22;35952;52.524;13.340;2023-01-13T00:45:50;9.70;99.90
50067;DHT22;35952;52.524;13.340;2023-01-13T00:48:17;9.80;99.90
50067;DHT22;35952;52.524;13.340;2023-01-13T00:50:43;9.80;99.90
50067;DHT22;35952;52.524;13.340;2023-01-13T00:53:09;9.70;99.90
50067;DHT22;35952;52.524;13.340;2023-01-13T00:55:34;9.70;99.90
50067;DHT22;35952;52.524;13.340;2023-01-13T00:58:00;9.70;99.90
50067;DHT22;35952;52.524;13.340;2023-01-13T01:00:29;9.80;99.90
50067;DHT22;35952;52.524;13.340;2023-01-13T01:02:55;9.80;99.90
50067;DHT22;35952;52.524;13.340;2023-01-13T01:05:20;9.90;99.90
50067;DHT22;35952;52.524;13.340;2023-01-13T01:07:46;9.80;99.90
50067;DHT22;35952;52.524;13.340;2023-01-13T01:10:11;9.80;99.90
50067;DHT22;35952;52.524;13.340;2023-01-13T01:12:37;9.90;99.90
50067;DHT22;35952;52.524;13.340;2023-01-13T01:15:03;10.00;99.90
50067;DHT22;35952;52.524;13.340;2023-01-13T01:17:30;9.90;99.90
50067;DHT22;35952;52.524;13.340;2023-01-13T01:19:56;10.00;99.90
50067;DHT22;35952;52.524;13.340;2023-01-13T01:22:21;9.90;99.90
50067;DHT22;35952;52.524;13.340;2023-01-13T01:24:47;9.90;99.90
50067;DHT22;35952;52.524;13.340;2023-01-13T01:27:12;9.90;99.90
50067;DHT22;35952;52.524;13.340;2023-01-13T01:29:38;9.90;99.90
50067;DHT22;35952;52.524;13.340;2023-01-13T01:32:03;9.90;99.90
50067;DHT22;35952;52.524;13.340;2023-01-13T01:34:29;10.00;99.90
50067;DHT22;35952;52.524;13.340;2023-01-13T01:36:54;10.10;99.90
50067;DHT22;35952;52.524;13.340;2023-01-13T01:39:20;10.10;99.90
50067;DHT22;35952;52.524;13.340;2023-01-13T01:41:45;10.00;99.90
50067;DHT22;35952;52.524;13.340;2023-01-13T01:45:13;10.00;99.90
50067;DHT22;35952;52.524;13.340;2023-01-13T01:47:39;10.10;99.90
50067;DHT22;35952;52.524;13.340;2023-01-13T01:50:06;10.10;99.90
50067;DHT22;35952;52.524;13.340;2023-01-13T01:52:36;10.10;99.90
50067;DHT22;35952;52.524;13.340;2023-01-13T01:55:11;10.10;99.90
50067;DHT22;35952;52.524;13.340;2023-01-13T01:57:42;10.10;99.90
50067;DHT22;35952;52.524;13.340;2023-01-13T02:00:10;10.10;99.90
50067;DHT22;35952;52.524;13.340;2023-01-13T02:02:36;10.10;99.90
50067;DHT22;35952;52.524;13.340;2023-01-13T02:05:02;10.10;99.90
50067;DHT22;35952;52.524;13.340;2023-01-13T02:07:30;10.10;99.90
50067;DHT22;35952;52.524;13.340;2023-01-13T02:10:00;10.10;99.90
50067;DHT22;35952;52.524;13.340;2023-01-13T02:12:28;10.10;99.90
50067;DHT22;35952;52.524;13.340;2023-01-13T02:14:55;10.10;99.90
50067;DHT22;35952;52.524;13.340;2023-01-13T02:17:44;10.10;99.90
50067;DHT22;35952;52.524;13.340;2023-01-13T02:26:28;10.00;99.90
50067;DHT22;35952;52.524;13.340;2023-01-13T02:29:27;10.00;99.90
50067;DHT22;35952;52.524;13.340;2023-01-13T02:32:32;10.00;99.90
50067;DHT22;35952;52.524;13.340;2023-01-13T02:35:08;9.90;99.90
50067;DHT22;35952;52.524;13.340;2023-01-13T02:37:39;10.00;99.90
50067;DHT22;35952;52.524;13.340;2023-01-13T02:42:34;10.00;99.90
50067;DHT22;35952;52.524;13.340;2023-01-13T02:45:32;10.00;99.90
50067;DHT22;35952;52.524;13.340;2023-01-13T02:48:04;9.90;99.90
50067;DHT22;35952;52.524;13.340;2023-01-13T02:50:36;9.90;99.90
50067;DHT22;35952;52.524;13.340;2023-01-13T02:53:27;9.90;99.90
50067;DHT22;35952;52.524;13.340;2023-01-13T02:55:55;10.10;99.90
50067;DHT22;35952;52.524;13.340;2023-01-13T02:58:26;10.10;99.90
50067;DHT22;35952;52.524;13.340;2023-01-13T03:00:52;10.00;99.90
50067;DHT22;35952;52.524;13.340;2023-01-13T03:03:18;10.10;99.90
50067;DHT22;35952;52.524;13.340;2023-01-13T03:05:45;10.10;99.90
50067;DHT22;35952;52.524;13.340;2023-01-13T03:08:15;10.10;99.90
50067;DHT22;35952;52.524;13.340;2023-01-13T03:11:08;10.00;99.90
50067;DHT22;35952;52.524;13.340;2023-01-13T03:14:00;10.10;99.90
50067;DHT22;35952;52.524;13.340;2023-01-13T03:19:46;10.10;99.90
50067;DHT22;35952;52.524;13.340;2023-01-13T03:22:46;10.00;99.90
50067;DHT22;35952;52.524;13.340;2023-01-13T03:25:22;10.10;99.90
50067;DHT22;35952;52.524;13.340;2023-01-13T03:27:56;10.10;99.90
50067;DHT22;35952;52.524;13.340;2023-01-13T03:30:30;10.10;99.90
50067;DHT22;35952;52.524;13.340;2023-01-13T03:33:04;10.20;99.90
50067;DHT22;35952;52.524;13.340;2023-01-13T03:35:37;10.20;99.90
50067;DHT22;35952;52.524;13.340;2023-01-13T03:38:08;10.10;99.90
50067;DHT22;35952;52.524;13.340;2023-01-13T03:40:39;10.10;99.90
50067;DHT22;35952;52.524;13.340;2023-01-13T03:43:15;10.10;99.90
50067;DHT22;35952;52.524;13.340;2023-01-13T03:46:07;10.10;99.90
50067;DHT22;35952;52.524;13.340;2023-01-13T03:48:36;10.00;99.90
50067;DHT22;35952;52.524;13.340;2023-01-13T03:51:09;10.00;99.90
50067;DHT22;35952;52.524;13.340;2023-01-13T03:53:46;10.00;99.90
50067;DHT22;35952;52.524;13.340;2023-01-13T03:56:30;10.00;99.90
50067;DHT22;35952;52.524;13.340;2023-01-13T03:58:58;10.10;99.90
50067;DHT22;35952;52.524;13.340;2023-01-13T04:01:32;9.90;99.90
50067;DHT22;35952;52.524;13.340;2023-01-13T04:04:08;9.90;99.90
50067;DHT22;35952;52.524;13.340;2023-01-13T04:07:07;10.00;99.90
50067;DHT22;35952;52.524;13.340;2023-01-13T04:12:24;9.90;99.90
50067;DHT22;35952;52.524;13.340;2023-01-13T04:14:51;9.80;99.90
50067;DHT22;35952;52.524;13.340;2023-01-13T04:17:17;9.90;99.90
50067;DHT22;35952;52.524;13.340;2023-01-13T04:19:43;9.80;99.90
50067;DHT22;35952;52.524;13.340;2023-01-13T04:22:08;9.80;99.90
50067;DHT22;35952;52.524;13.340;2023-01-13T04:24:34;9.80;99.90
50067;DHT22;35952;52.524;13.340;2023-01-13T04:27:01;9.80;99.90
50067;DHT22;35952;52.524;13.340;2023-01-13T04:29:27;9.80;99.90
50067;DHT22;35952;52.524;13.340;2023-01-13T04:31:52;9.80;99.90
50067;DHT22;35952;52.524;13.340;2023-01-13T04:34:18;9.90;99.90
50067;DHT22;35952;52.524;13.340;2023-01-13T04:36:44;9.90;99.90
50067;DHT22;35952;52.524;13.340;2023-01-13T04:39:09;9.90;99.90
50067;DHT22;35952;52.524;13.340;2023-01-13T04:41:35;9.90;99.90
50067;DHT22;35952;52.524;13.340;2023-01-13T04:44:19;9.80;99.90
50067;DHT22;35952;52.524;13.340;2023-01-13T04:46:44;9.70;99.90
50067;DHT22;35952;52.524;13.340;2023-01-13T04:49:10;9.80;99.90
50067;DHT22;35952;52.524;13.340;2023-01-13T04:51:35;9.80;99.90
50067;DHT22;35952;52.524;13.340;2023-01-13T04:54:01;9.80;99.90
50067;DHT22;35952;52.524;13.340;2023-01-13T04:56:26;9.80;99.90
50067;DHT22;35952;52.524;13.340;2023-01-13T04:58:52;9.80;99.90
50067;DHT22;35952;52.524;13.340;2023-01-13T05:01:17;9.80;99.90
50067;DHT22;35952;52.524;13.340;2023-01-13T05:03:43;9.80;99.90
50067;DHT22;35952;52.524;13.340;2023-01-13T05:06:08;9.90;99.90
50067;DHT22;35952;52.524;13.340;2023-01-13T05:08:34;9.90;99.90
50067;DHT22;35952;52.524;13.340;2023-01-13T05:11:00;9.90;99.90
50067;DHT22;35952;52.524;13.340;2023-01-13T05:13:25;9.80;99.90
50067;DHT22;35952;52.524;13.340;2023-01-13T05:16:11;9.80;99.90
50067;DHT22;35952;52.524;13.340;2023-01-13T05:18:55;10.00;99.90
50067;DHT22;35952;52.524;13.340;2023-01-13T05:21:21;10.00;99.90
50067;DHT22;35952;52.524;13.340;2023-01-13T05:24:05;10.20;99.90
50067;DHT22;35952;52.524;13.340;2023-01-13T05:26:49;10.10;99.90
50067;DHT22;35952;52.524;13.340;2023-01-13T05:29:14;10.20;99.90
50067;DHT22;35952;52.524;13.340;2023-01-13T05:31:40;10.20;99.90
50067;DHT22;35952;52.524;13.340;2023-01-13T05:34:05;10.20;99.90
50067;DHT22;35952;52.524;13.340;2023-01-13T05:36:31;10.20;99.90
50067;DHT22;35952;52.524;13.340;2023-01-13T05:38:56;10.10;99.90
50067;DHT22;35952;52.524;13.340;2023-01-13T05:41:22;10.20;99.90
50067;DHT22;35952;52.524;13.340;2023-01-13T05:44:06;10.30;99.90
50067;DHT22;35952;52.524;13.340;2023-01-13T05:46:31;10.20;99.90
50067;DHT22;35952;52.524;13.340;2023-01-13T05:48:57;10.20;99.90
50067;DHT22;35952;52.524;13.340;2023-01-13T05:51:24;10.20;99.90
50067;DHT22;35952;52.524;13.340;2023-01-13T05:53:51;10.20;99.90
50067;DHT22;35952;52.524;13.340;2023-01-13T05:56:16;10.00;99.90
50067;DHT22;35952;52.524;13.340;2023-01-13T05:58:42;10.10;99.90
50067;DHT22;35952;52.524;13.340;2023-01-13T06:01:09;10.10;99.90
50067;DHT22;35952;52.524;13.340;2023-01-13T06:03:35;9.90;99.90
50067;DHT22;35952;52.524;13.340;2023-01-13T06:06:01;9.90;99.90
50067;DHT22;35952;52.524;13.340;2023-01-13T06:08:29;9.90;99.90
50067;DHT22;35952;52.524;13.340;2023-01-13T06:10:55;9.90;99.90
50067;DHT22;35952;52.524;13.340;2023-01-13T06:13:21;9.90;99.90
50067;DHT22;35952;52.524;13.340;2023-01-13T06:15:47;9.70;99.90
50067;DHT22;35952;52.524;13.340;2023-01-13T06:18:12;9.50;99.90
50067;DHT22;35952;52.524;13.340;2023-01-13T06:20:38;9.70;99.90
50067;DHT22;35952;52.524;13.340;2023-01-13T06:23:03;9.70;99.90
50067;DHT22;35952;52.524;13.340;2023-01-13T06:25:45;9.60;99.90
50067;DHT22;35952;52.524;13.340;2023-01-13T06:28:11;9.60;99.90
50067;DHT22;35952;52.524;13.340;2023-01-13T06:30:49;9.60;99.90
50067;DHT22;35952;52.524;13.340;2023-01-13T06:33:20;9.80;99.90
50067;DHT22;35952;52.524;13.340;2023-01-13T06:35:53;9.70;99.90
50067;DHT22;35952;52.524;13.340;2023-01-13T06:38:22;9.70;99.90
50067;DHT22;35952;52.524;13.340;2023-01-13T06:40:50;9.80;99.90
50067;DHT22;35952;52.524;13.340;2023-01-13T06:43:15;9.80;99.90
50067;DHT22;35952;52.524;13.340;2023-01-13T06:45:48;9.90;99.90
50067;DHT22;35952;52.524;13.340;2023-01-13T06:48:14;10.00;99.90
50067;DHT22;35952;52.524;13.340;2023-01-13T06:50:40;10.00;99.90
50067;DHT22;35952;52.524;13.340;2023-01-13T06:53:07;10.10;99.90
50067;DHT22;35952;52.524;13.340;2023-01-13T06:55:32;10.10;99.90
50067;DHT22;35952;52.524;13.340;2023-01-13T06:57:58;10.10;99.90
50067;DHT22;35952;52.524;13.340;2023-01-13T07:00:25;10.20;99.90
50067;DHT22;35952;52.524;13.340;2023-01-13T07:02:50;10.10;99.90
50067;DHT22;35952;52.524;13.340;2023-01-13T07:05:17;10.20;99.90
50067;DHT22;35952;52.524;13.340;2023-01-13T07:07:43;10.20;99.90
50067;DHT22;35952;52.524;13.340;2023-01-13T07:10:11;10.10;99.90
50067;DHT22;35952;52.524;13.340;2023-01-13T07:12:40;10.20;99.90
50067;DHT22;35952;52.524;13.340;2023-01-13T07:15:41;10.10;99.90
50067;DHT22;35952;52.524;13.340;2023-01-13T07:18:06;10.10;99.90
50067;DHT22;35952;52.524;13.340;2023-01-13T07:20:32;10.00;99.90
50067;DHT22;35952;52.524;13.340;2023-01-13T07:22:58;10.00;99.90
50067;DHT22;35952;52.524;13.340;2023-01-13T07:25:24;10.00;99.90
50067;DHT22;35952;52.524;13.340;2023-01-13T07:27:49;10.10;99.90
50067;DHT22;35952;52.524;13.340;2023-01-13T07:30:15;10.10;99.90
50067;DHT22;35952;52.524;13.340;2023-01-13T07:32:40;10.20;99.90
50067;DHT22;35952;52.524;13.340;2023-01-13T07:35:06;10.10;99.90
50067;DHT22;35952;52.524;13.340;2023-01-13T07:37:33;10.10;99.90
50067;DHT22;35952;52.524;13.340;2023-01-13T07:39:59;10.00;99.90
50067;DHT22;35952;52.524;13.340;2023-01-13T07:42:25;10.10;99.90
50067;DHT22;35952;52.524;13.340;2023-01-13T07:45:09;10.00;99.90
50067;DHT22;35952;52.524;13.340;2023-01-13T07:47:35;10.00;99.90
50067;DHT22;35952;52.524;13.340;2023-01-13T07:50:01;10.10;99.90
50067;DHT22;35952;52.524;13.340;2023-01-13T07:52:26;10.20;99.90
50067;DHT22;35952;52.524;13.340;2023-01-13T07:54:52;10.20;99.90
50067;DHT22;35952;52.524;13.340;2023-01-13T07:57:17;10.20;99.90
50067;DHT22;35952;52.524;13.340;2023-01-13T07:59:43;10.30;99.90
50067;DHT22;35952;52.524;13.340;2023-01-13T08:02:10;10.20;99.90
50067;DHT22;35952;52.524;13.340;2023-01-13T08:04:37;10.20;99.90
50067;DHT22;35952;52.524;13.340;2023-01-13T08:07:03;10.10;99.90
50067;DHT22;35952;52.524;13.340;2023-01-13T08:09:29;10.10;99.90
50067;DHT22;35952;52.524;13.340;2023-01-13T08:11:55;10.20;99.90
50067;DHT22;35952;52.524;13.340;2023-01-13T08:14:40;10.30;99.90
50067;DHT22;35952;52.524;13.340;2023-01-13T08:17:09;10.30;99.90
50067;DHT22;35952;52.524;13.340;2023-01-13T08:19:35;10.40;99.90
50067;DHT22;35952;52.524;13.340;2023-01-13T08:22:01;10.50;99.90
50067;DHT22;35952;52.524;13.340;2023-01-13T08:24:26;10.50;99.90
50067;DHT22;35952;52.524;13.340;2023-01-13T08:26:52;10.50;99.90
50067;DHT22;35952;52.524;13.340;2023-01-13T08:29:21;10.40;99.90
50067;DHT22;35952;52.524;13.340;2023-01-13T08:31:47;10.30;99.90
50067;DHT22;35952;52.524;13.340;2023-01-13T08:34:12;10.30;99.90
50067;DHT22;35952;52.524;13.340;2023-01-13T08:36:38;10.30;99.90
50067;DHT22;35952;52.524;13.340;2023-01-13T08:39:03;10.10;99.90
50067;DHT22;35952;52.524;13.340;2023-01-13T08:41:29;10.10;99.90
50067;DHT22;35952;52.524;13.340;2023-01-13T08:44:27;10.10;99.90
50067;DHT22;35952;52.524;13.340;2023-01-13T08:46:53;10.20;99.90
50067;DHT22;35952;52.524;13.340;2023-01-13T08:49:19;10.00;99.90
50067;DHT22;35952;52.524;13.340;2023-01-13T08:51:45;9.80;99.90
50067;DHT22;35952;52.524;13.340;2023-01-13T08:54:11;10.00;99.90
50067;DHT22;35952;52.524;13.340;2023-01-13T08:56:37;10.10;99.90
50067;DHT22;35952;52.524;13.340;2023-01-13T08:59:03;10.00;99.90
50067;DHT22;35952;52.524;13.340;2023-01-13T09:01:29;10.00;99.90
50067;DHT22;35952;52.524;13.340;2023-01-13T09:03:55;9.90;99.90
50067;DHT22;35952;52.524;13.340;2023-01-13T09:06:20;10.00;99.90
50067;DHT22;35952;52.524;13.340;2023-01-13T09:08:46;10.00;99.90
50067;DHT22;35952;52.524;13.340;2023-01-13T09:11:32;9.90;99.90
50067;DHT22;35952;52.524;13.340;2023-01-13T09:14:19;9.90;99.90
50067;DHT22;35952;52.524;13.340;2023-01-13T09:16:45;10.00;99.90
50067;DHT22;35952;52.524;13.340;2023-01-13T09:19:11;9.80;99.90
50067;DHT22;35952;52.524;13.340;2023-01-13T09:21:36;9.90;99.90
50067;DHT22;35952;52.524;13.340;2023-01-13T09:24:02;10.00;99.90
50067;DHT22;35952;52.524;13.340;2023-01-13T09:26:28;10.10;99.90
50067;DHT22;35952;52.524;13.340;2023-01-13T09:28:53;10.10;99.90
50067;DHT22;35952;52.524;13.340;2023-01-13T09:31:19;10.20;99.90
50067;DHT22;35952;52.524;13.340;2023-01-13T09:33:45;10.20;99.90
50067;DHT22;35952;52.524;13.340;2023-01-13T09:36:29;10.10;99.90
50067;DHT22;35952;52.524;13.340;2023-01-13T09:38:55;10.00;99.90
50067;DHT22;35952;52.524;13.340;2023-01-13T09:41:23;10.10;99.90
50067;DHT22;35952;52.524;13.340;2023-01-13T09:44:12;10.10;99.90
50067;DHT22;35952;52.524;13.340;2023-01-13T09:47:03;10.10;99.90
50067;DHT22;35952;52.524;13.340;2023-01-13T09:49:39;10.10;99.90
50067;DHT22;35952;52.524;13.340;2023-01-13T09:52:12;10.10;99.90
50067;DHT22;35952;52.524;13.340;2023-01-13T09:54:44;10.00;99.90
50067;DHT22;35952;52.524;13.340;2023-01-13T09:57:16;10.10;99.90
50067;DHT22;35952;52.524;13.340;2023-01-13T09:59:42;10.00;99.90
50067;DHT22;35952;52.524;13.340;2023-01-13T10:02:25;10.00;99.90
50067;DHT22;35952;52.524;13.340;2023-01-13T10:05:26;9.90;99.90
50067;DHT22;35952;52.524;13.340;2023-01-13T10:08:01;9.90;99.90
50067;DHT22;35952;52.524;13.340;2023-01-13T10:10:49;9.90;99.90
50067;DHT22;35952;52.524;13.340;2023-01-13T10:13:34;9.90;99.90
50067;DHT22;35952;52.524;13.340;2023-01-13T10:18:59;9.70;99.90
50067;DHT22;35952;52.524;13.340;2023-01-13T10:27:00;9.80;99.90
50067;DHT22;35952;52.524;13.340;2023-01-13T10:29:28;9.80;99.90
50067;DHT22;35952;52.524;13.340;2023-01-13T10:31:55;9.90;99.90
50067;DHT22;35952;52.524;13.340;2023-01-13T10:34:22;9.90;99.90
50067;DHT22;35952;52.524;13.340;2023-01-13T10:36:57;9.90;99.90
50067;DHT22;35952;52.524;13.340;2023-01-13T10:39:28;9.90;99.90
50067;DHT22;35952;52.524;13.340;2023-01-13T10:42:03;9.90;99.90
50067;DHT22;35952;52.524;13.340;2023-01-13T10:44:29;10.10;99.90
50067;DHT22;35952;52.524;13.340;2023-01-13T10:46:57;10.10;99.90
50067;DHT22;35952;52.524;13.340;2023-01-13T10:49:32;10.10;99.90
50067;DHT22;35952;52.524;13.340;2023-01-13T10:51:58;10.10;99.90
50067;DHT22;35952;52.524;13.340;2023-01-13T10:54:25;10.10;99.90
50067;DHT22;35952;52.524;13.340;2023-01-13T10:57:12;10.10;99.90
50067;DHT22;35952;52.524;13.340;2023-01-13T10:59:38;10.10;99.90
50067;DHT22;35952;52.524;13.340;2023-01-13T11:02:18;10.10;99.90
50067;DHT22;35952;52.524;13.340;2023-01-13T11:07:34;10.00;99.90
50067;DHT22;35952;52.524;13.340;2023-01-13T11:15:54;10.40;99.90
50067;DHT22;35952;52.524;13.340;2023-01-13T11:18:33;10.60;99.90
50067;DHT22;35952;52.524;13.340;2023-01-13T11:21:13;10.20;99.90
50067;DHT22;35952;52.524;13.340;2023-01-13T11:23:49;10.20;99.90
50067;DHT22;35952;52.524;13.340;2023-01-13T11:26:24;9.90;99.90
50067;DHT22;35952;52.524;13.340;2023-01-13T11:29:04;10.00;99.90
50067;DHT22;35952;52.524;13.340;2023-01-13T11:31:42;10.00;99.90
50067;DHT22;35952;52.524;13.340;2023-01-13T11:34:30;10.10;99.90
50067;DHT22;35952;52.524;13.340;2023-01-13T11:37:00;10.10;99.90
50067;DHT22;35952;52.524;13.340;2023-01-13T11:47:23;10.20;99.90
50067;DHT22;35952;52.524;13.340;2023-01-13T11:49:50;10.20;99.90
50067;DHT22;35952;52.524;13.340;2023-01-13T11:55:23;10.30;99.90
50067;DHT22;35952;52.524;13.340;2023-01-13T11:58:00;10.30;99.90
50067;DHT22;35952;52.524;13.340;2023-01-13T12:03:42;10.20;99.90
50067;DHT22;35952;52.524;13.340;2023-01-13T12:06:21;10.30;99.90
50067;DHT22;35952;52.524;13.340;2023-01-13T12:12:06;10.30;99.90
50067;DHT22;35952;52.524;13.340;2023-01-13T12:23:34;10.20;99.90
50067;DHT22;35952;52.524;13.340;2023-01-13T12:26:13;10.20;99.90
50067;DHT22;35952;52.524;13.340;2023-01-13T12:31:09;10.30;99.90
50067;DHT22;35952;52.524;13.340;2023-01-13T12:36:59;10.30;99.90
50067;DHT22;35952;52.524;13.340;2023-01-13T12:47:40;10.40;99.90
50067;DHT22;35952;52.524;13.340;2023-01-13T12:53:29;10.40;99.90
50067;DHT22;35952;52.524;13.340;2023-01-13T12:56:19;10.40;99.90
50067;DHT22;35952;52.524;13.340;2023-01-13T12:58:46;10.40;99.90
50067;DHT22;35952;52.524;13.340;2023-01-13T13:01:13;10.40;99.90
50067;DHT22;35952;52.524;13.340;2023-01-13T13:03:39;10.40;99.90
50067;DHT22;35952;52.524;13.340;2023-01-13T13:06:13;10.50;99.90
50067;DHT22;35952;52.524;13.340;2023-01-13T13:08:45;10.50;99.90
50067;DHT22;35952;52.524;13.340;2023-01-13T13:14:10;10.50;99.90
50067;DHT22;35952;52.524;13.340;2023-01-13T13:16:47;10.60;99.90
50067;DHT22;35952;52.524;13.340;2023-01-13T13:30:17;10.70;99.90
50067;DHT22;35952;52.524;13.340;2023-01-13T13:38:44;10.70;99.90
50067;DHT22;35952;52.524;13.340;2023-01-13T13:41:34;10.60;99.90
50067;DHT22;35952;52.524;13.340;2023-01-13T13:44:30;10.60;99.90
50067;DHT22;35952;52.524;13.340;2023-01-13T13:47:15;10.50;99.90
50067;DHT22;35952;52.524;13.340;2023-01-13T13:49:49;10.40;99.90
50067;DHT22;35952;52.524;13.340;2023-01-13T13:52:35;10.40;99.90
50067;DHT22;35952;52.524;13.340;2023-01-13T13:55:12;10.40;99.90
50067;DHT22;35952;52.524;13.340;2023-01-13T13:57:44;10.30;99.90
50067;DHT22;35952;52.524;13.340;2023-01-13T14:02:44;10.00;99.90
50067;DHT22;35952;52.524;13.340;2023-01-13T14:07:44;10.20;99.90
50067;DHT22;35952;52.524;13.340;2023-01-13T14:10:19;10.20;99.90
50067;DHT22;35952;52.524;13.340;2023-01-13T14:12:45;10.20;99.90
50067;DHT22;35952;52.524;13.340;2023-01-13T14:15:30;10.20;99.90
50067;DHT22;35952;52.524;13.340;2023-01-13T14:17:57;10.20;99.90
50067;DHT22;35952;52.524;13.340;2023-01-13T14:20:23;10.20;99.90
50067;DHT22;35952;52.524;13.340;2023-01-13T14:22:51;10.20;99.90
50067;DHT22;35952;52.524;13.340;2023-01-13T14:27:58;10.40;99.90
50067;DHT22;35952;52.524;13.340;2023-01-13T14:30:26;10.40;99.90
50067;DHT22;35952;52.524;13.340;2023-01-13T14:32:52;10.40;99.90
50067;DHT22;35952;52.524;13.340;2023-01-13T14:35:19;10.40;99.90
50067;DHT22;35952;52.524;13.340;2023-01-13T14:37:45;10.40;99.90
50067;DHT22;35952;52.524;13.340;2023-01-13T14:43:11;10.40;99.90
50067;DHT22;35952;52.524;13.340;2023-01-13T14:45:38;10.30;99.90
50067;DHT22;35952;52.524;13.340;2023-01-13T14:48:07;10.30;99.90
50067;DHT22;35952;52.524;13.340;2023-01-13T14:50:33;10.30;99.90
50067;DHT22;35952;52.524;13.340;2023-01-13T14:53:00;10.40;99.90
50067;DHT22;35952;52.524;13.340;2023-01-13T14:55:33;10.30;99.90
50067;DHT22;35952;52.524;13.340;2023-01-13T15:00:46;10.30;99.90
50067;DHT22;35952;52.524;13.340;2023-01-13T15:03:16;10.30;99.90
50067;DHT22;35952;52.524;13.340;2023-01-13T15:05:49;10.20;99.90
50067;DHT22;35952;52.524;13.340;2023-01-13T15:16:27;10.20;99.90
50067;DHT22;35952;52.524;13.340;2023-01-13T15:18:53;10.20;99.90
50067;DHT22;35952;52.524;13.340;2023-01-13T15:21:19;10.10;99.90
50067;DHT22;35952;52.524;13.340;2023-01-13T15:23:45;10.00;99.90
50067;DHT22;35952;52.524;13.340;2023-01-13T15:26:23;10.00;99.90
50067;DHT22;35952;52.524;13.340;2023-01-13T15:28:50;10.00;99.90
50067;DHT22;35952;52.524;13.340;2023-01-13T15:31:16;10.00;99.90
50067;DHT22;35952;52.524;13.340;2023-01-13T15:33:42;9.90;99.90
50067;DHT22;35952;52.524;13.340;2023-01-13T15:36:28;10.00;99.90
50067;DHT22;35952;52.524;13.340;2023-01-13T15:38:56;9.90;99.90
50067;DHT22;35952;52.524;13.340;2023-01-13T15:41:22;9.90;99.90
50067;DHT22;35952;52.524;13.340;2023-01-13T15:44:09;9.70;99.90
50067;DHT22;35952;52.524;13.340;2023-01-13T15:46:54;9.80;99.90
50067;DHT22;35952;52.524;13.340;2023-01-13T15:49:49;9.60;99.90
50067;DHT22;35952;52.524;13.340;2023-01-13T15:52:25;9.60;99.90
50067;DHT22;35952;52.524;13.340;2023-01-13T15:54:52;9.70;99.90
50067;DHT22;35952;52.524;13.340;2023-01-13T15:57:26;9.70;99.90
50067;DHT22;35952;52.524;13.340;2023-01-13T15:59:54;9.80;99.90
50067;DHT22;35952;52.524;13.340;2023-01-13T16:02:21;9.80;99.90
50067;DHT22;35952;52.524;13.340;2023-01-13T16:04:47;9.80;99.90
50067;DHT22;35952;52.524;13.340;2023-01-13T16:07:16;9.70;99.90
50067;DHT22;35952;52.524;13.340;2023-01-13T16:09:43;9.80;99.90
50067;DHT22;35952;52.524;13.340;2023-01-13T16:12:09;9.80;99.90
50067;DHT22;35952;52.524;13.340;2023-01-13T16:14:35;9.80;99.90
50067;DHT22;35952;52.524;13.340;2023-01-13T16:17:03;9.70;99.90
50067;DHT22;35952;52.524;13.340;2023-01-13T16:19:34;9.70;99.90
50067;DHT22;35952;52.524;13.340;2023-01-13T16:22:00;9.80;99.90
50067;DHT22;35952;52.524;13.340;2023-01-13T16:24:26;9.80;99.90
50067;DHT22;35952;52.524;13.340;2023-01-13T16:26:51;9.70;99.90
50067;DHT22;35952;52.524;13.340;2023-01-13T16:29:17;9.70;99.90
50067;DHT22;35952;52.524;13.340;2023-01-13T16:31:43;9.80;99.90
50067;DHT22;35952;52.524;13.340;2023-01-13T16:34:09;9.80;99.90
50067;DHT22;35952;52.524;13.340;2023-01-13T16:36:35;9.80;99.90
50067;DHT22;35952;52.524;13.340;2023-01-13T16:39:02;9.80;99.90
50067;DHT22;35952;52.524;13.340;2023-01-13T16:41:27;9.80;99.90
50067;DHT22;35952;52.524;13.340;2023-01-13T16:43:53;9.80;99.90
50067;DHT22;35952;52.524;13.340;2023-01-13T16:46:27;9.80;99.90
50067;DHT22;35952;52.524;13.340;2023-01-13T16:48:55;9.70;99.90
50067;DHT22;35952;52.524;13.340;2023-01-13T16:51:22;9.60;99.90
50067;DHT22;35952;52.524;13.340;2023-01-13T16:53:49;9.70;99.90
50067;DHT22;35952;52.524;13.340;2023-01-13T16:56:23;9.60;99.90
50067;DHT22;35952;52.524;13.340;2023-01-13T16:58:50;9.60;99.90
50067;DHT22;35952;52.524;13.340;2023-01-13T17:01:27;9.60;99.90
50067;DHT22;35952;52.524;13.340;2023-01-13T17:03:54;9.70;99.90
50067;DHT22;35952;52.524;13.340;2023-01-13T17:06:48;9.60;99.90
50067;DHT22;35952;52.524;13.340;2023-01-13T17:09:17;9.60;99.90
50067;DHT22;35952;52.524;13.340;2023-01-13T17:11:42;9.50;99.90
50067;DHT22;35952;52.524;13.340;2023-01-13T17:14:08;9.60;99.90
50067;DHT22;35952;52.524;13.340;2023-01-13T17:16:34;9.50;99.90
50067;DHT22;35952;52.524;13.340;2023-01-13T17:19:00;9.50;99.90
50067;DHT22;35952;52.524;13.340;2023-01-13T17:21:25;9.60;99.90
50067;DHT22;35952;52.524;13.340;2023-01-13T17:23:51;9.60;99.90
50067;DHT22;35952;52.524;13.340;2023-01-13T17:26:39;9.60;99.90
50067;DHT22;35952;52.524;13.340;2023-01-13T17:29:09;9.40;99.90
50067;DHT22;35952;52.524;13.340;2023-01-13T17:31:35;9.40;99.90
50067;DHT22;35952;52.524;13.340;2023-01-13T17:34:02;9.40;99.90
50067;DHT22;35952;52.524;13.340;2023-01-13T17:36:28;9.40;99.90
50067;DHT22;35952;52.524;13.340;2023-01-13T17:38:54;9.30;99.90
50067;DHT22;35952;52.524;13.340;2023-01-13T17:41:20;9.30;99.90